createdAt,value
2022-09-07T00:08:36.830Z,77.99
2022-09-07T00:18:43.792Z,76.12
2022-09-07T00:28:50.345Z,76.14
2022-09-07T00:38:54.556Z,77.66
2022-09-07T00:49:00.516Z,79.92
2022-09-07T00:59:04.645Z,78.99
2022-09-07T01:09:11.718Z,82.43
2022-09-07T01:19:14.646Z,82.74
2022-09-07T01:29:33.106Z,82.71
2022-09-07T01:39:48.136Z,81.71
2022-09-07T01:50:19.076Z,83.24
2022-09-07T02:00:22.419Z,81.84
2022-09-07T02:10:41.873Z,83.18
2022-09-07T02:20:50.475Z,82.05
2022-09-07T02:30:53.670Z,83.64
2022-09-07T02:40:59.333Z,83.66
2022-09-07T03:01:54.663Z,83.38
2022-09-07T03:11:58.129Z,85.03
2022-09-07T03:22:01.086Z,85.40
2022-09-07T03:32:04.180Z,86.03
2022-09-07T03:42:07.330Z,85.49
2022-09-07T03:52:10.673Z,87.18
2022-09-07T04:02:14.362Z,87.98
2022-09-07T04:12:17.772Z,87.16
2022-09-07T04:22:20.998Z,86.58
2022-09-07T04:32:24.013Z,86.16
2022-09-07T04:42:26.941Z,84.11
2022-09-07T04:52:29.948Z,82.65
2022-09-07T05:02:33.603Z,79.89
2022-09-07T05:12:36.531Z,77.27
2022-09-07T05:22:41.220Z,77.36
2022-09-07T05:32:47.631Z,73.07
2022-09-07T05:42:50.700Z,69.50
2022-09-07T05:52:53.931Z,67.42
2022-09-07T06:02:56.923Z,65.38
2022-09-07T06:13:00.010Z,63.63
2022-09-07T06:23:02.990Z,63.72
2022-09-07T06:33:05.918Z,62.43
2022-09-07T06:43:09.612Z,61.75
2022-09-07T07:03:36.510Z,61.60
2022-09-07T07:13:41.100Z,60.32
2022-09-07T07:23:44.198Z,58.95
2022-09-07T07:33:48.423Z,58.31
2022-09-07T07:44:00.529Z,56.19
2022-09-07T07:54:03.747Z,54.75
2022-09-07T08:04:06.674Z,55.25
2022-09-07T08:14:09.687Z,54.21
2022-09-07T08:24:12.584Z,54.26
2022-09-07T08:34:15.735Z,52.97
2022-09-07T08:44:41.582Z,51.43
2022-09-07T08:54:53.317Z,50.67
2022-09-07T09:15:34.287Z,46.62
2022-09-07T09:25:40.065Z,45.40
2022-09-07T09:35:44.574Z,47.40
2022-09-07T09:56:14.565Z,44.21
2022-09-07T10:06:19.567Z,44.29
2022-09-07T10:16:40.435Z,42.38
2022-09-07T10:26:44.909Z,48.42
2022-09-07T10:37:00.087Z,42.45
2022-09-07T10:47:24.835Z,45.71
2022-09-07T10:57:49.143Z,45.09
2022-09-07T11:07:52.300Z,42.74
2022-09-07T11:18:01.162Z,41.61
2022-09-07T11:28:14.675Z,47.82
2022-09-07T11:38:31.084Z,45.56
2022-09-07T11:48:46.032Z,42.87
2022-09-07T11:59:05.414Z,40.18
2022-09-07T12:09:17.051Z,43.57
2022-09-07T12:19:25.333Z,41.59
2022-09-07T12:29:30.027Z,41.69
2022-09-07T12:39:34.502Z,42.10
2022-09-07T12:50:12.342Z,44.93
2022-09-07T13:00:39.139Z,39.75
2022-09-07T13:10:43.897Z,41.92
2022-09-07T13:21:06.810Z,43.36
2022-09-07T13:31:51.692Z,44.12
2022-09-07T13:41:59.101Z,43.72
2022-09-07T13:52:17.134Z,42.61
2022-09-07T14:02:24.036Z,43.56
2022-09-07T14:12:31.444Z,42.26
2022-09-07T14:22:35.591Z,44.13
2022-09-07T14:32:38.919Z,45.46
2022-09-07T14:42:42.935Z,48.67
2022-09-07T15:03:31.892Z,47.61
2022-09-07T15:13:36.383Z,47.80
2022-09-07T15:23:39.842Z,48.20
2022-09-07T15:33:42.858Z,48.00
2022-09-07T15:43:47.833Z,48.13
2022-09-07T15:54:08.017Z,48.72
2022-09-07T16:04:15.561Z,49.30
2022-09-07T16:14:18.537Z,49.70
2022-09-07T16:24:21.505Z,50.38
2022-09-07T16:34:24.853Z,52.26
2022-09-07T16:44:28.125Z,53.42
2022-09-07T16:54:32.657Z,54.57
2022-09-07T17:04:35.624Z,55.17
2022-09-07T17:14:40.140Z,55.98
2022-09-07T17:24:43.056Z,56.83
2022-09-07T17:34:45.996Z,58.81
2022-09-07T17:44:52.777Z,61.27
2022-09-07T17:54:57.968Z,61.98
2022-09-07T18:05:02.768Z,64.04
2022-09-07T18:15:06.715Z,65.20
2022-09-07T18:25:10.439Z,66.45
2022-09-07T18:35:13.877Z,67.72
2022-09-07T18:45:33.694Z,70.08
2022-09-07T18:55:36.979Z,72.61
2022-09-07T19:05:56.436Z,74.02
2022-09-07T19:16:14.645Z,76.46
2022-09-07T19:26:18.010Z,77.85
2022-09-07T19:36:21.687Z,78.34
2022-09-07T19:46:25.325Z,78.01
2022-09-07T19:56:28.948Z,78.23
2022-09-07T20:06:34.845Z,78.56
2022-09-07T20:16:39.686Z,78.84
2022-09-07T20:26:43.059Z,80.32
2022-09-07T20:36:49.507Z,80.40
2022-09-07T20:46:52.504Z,82.65
2022-09-07T20:56:55.556Z,84.21
2022-09-07T21:06:58.533Z,84.58
2022-09-07T21:17:03.893Z,85.57
2022-09-07T21:27:07.836Z,85.64
2022-09-07T21:37:10.840Z,85.98
2022-09-07T21:47:13.880Z,85.98
2022-09-07T21:57:16.896Z,86.48
2022-09-07T22:07:20.545Z,86.73
2022-09-07T22:17:23.528Z,87.36
2022-09-07T22:27:26.538Z,87.40
2022-09-07T22:37:30.626Z,87.88
2022-09-07T22:47:33.751Z,88.01
2022-09-07T22:57:37.565Z,90.10
2022-09-07T23:07:42.231Z,90.60
2022-09-07T23:17:45.751Z,90.83
2022-09-07T23:27:48.986Z,90.41
2022-09-07T23:37:52.009Z,90.87
2022-09-07T23:47:54.888Z,92.06
2022-09-07T23:57:57.892Z,92.62
